createdAt,value
2018-01-12T00:02:25.451Z,22.30
2018-01-12T00:04:53.157Z,22.30
2018-01-12T00:07:20.727Z,22.30
2018-01-12T00:09:48.297Z,22.30
2018-01-12T00:12:16.027Z,22.30
2018-01-12T00:14:44.343Z,22.30
2018-01-12T00:17:11.923Z,22.30
2018-01-12T00:19:39.502Z,22.20
2018-01-12T00:22:07.126Z,22.30
2018-01-12T00:24:34.693Z,22.30
2018-01-12T00:27:02.285Z,22.30
2018-01-12T00:29:29.961Z,22.20
2018-01-12T00:31:57.587Z,22.20
2018-01-12T00:34:25.157Z,22.20
2018-01-12T00:36:52.733Z,22.20
2018-01-12T00:39:22.007Z,22.20
2018-01-12T00:41:49.574Z,22.20
2018-01-12T00:44:17.243Z,22.20
2018-01-12T00:46:44.803Z,22.30
2018-01-12T00:49:12.417Z,22.20
2018-01-12T00:51:39.965Z,22.20
2018-01-12T00:54:07.555Z,22.20
2018-01-12T00:56:35.165Z,22.20
2018-01-12T00:59:03.493Z,22.20
2018-01-12T01:01:31.066Z,22.20
2018-01-12T01:03:58.659Z,22.20
2018-01-12T01:06:26.235Z,22.20
2018-01-12T01:08:54.739Z,22.20
2018-01-12T01:11:22.305Z,22.20
2018-01-12T01:13:49.983Z,22.20
2018-01-12T01:16:17.555Z,22.20
2018-01-12T01:18:45.120Z,22.30
2018-01-12T01:21:12.761Z,22.20
2018-01-12T01:23:40.369Z,22.20
2018-01-12T01:26:08.707Z,22.20
2018-01-12T01:28:36.269Z,22.20
2018-01-12T01:31:03.906Z,22.20
2018-01-12T01:33:31.498Z,22.20
2018-01-12T01:35:59.065Z,22.20
2018-01-12T01:38:26.663Z,22.20
2018-01-12T01:40:54.595Z,22.20
2018-01-12T01:43:22.167Z,22.20
2018-01-12T01:45:49.717Z,22.20
2018-01-12T01:48:38.037Z,22.20
2018-01-12T01:51:05.624Z,22.20
2018-01-12T01:53:33.197Z,22.20
2018-01-12T01:56:00.907Z,22.20
2018-01-12T01:58:28.470Z,22.20
2018-01-12T02:00:56.038Z,22.20
2018-01-12T02:03:23.675Z,22.20
2018-01-12T02:05:51.261Z,22.20
2018-01-12T02:08:18.837Z,22.20
2018-01-12T02:10:46.431Z,22.20
2018-01-12T02:13:14.785Z,22.20
2018-01-12T02:15:43.336Z,22.20
2018-01-12T02:18:10.888Z,22.20
2018-01-12T02:20:38.483Z,22.20
2018-01-12T02:23:07.461Z,22.20
2018-01-12T02:25:35.076Z,22.20
2018-01-12T02:28:02.652Z,22.20
2018-01-12T02:30:30.238Z,22.10
2018-01-12T02:32:57.838Z,22.10
2018-01-12T02:35:25.429Z,22.20
2018-01-12T02:37:53.025Z,22.20
2018-01-12T02:40:20.571Z,22.20
2018-01-12T02:42:48.111Z,22.20
2018-01-12T02:45:15.776Z,22.20
2018-01-12T02:47:43.510Z,22.20
2018-01-12T02:50:11.862Z,22.20
2018-01-12T02:52:39.424Z,22.10
2018-01-12T02:55:07.066Z,22.10
2018-01-12T02:57:34.730Z,22.10
2018-01-12T03:00:02.346Z,22.10
2018-01-12T03:02:29.926Z,22.20
2018-01-12T03:04:57.488Z,22.10
2018-01-12T03:07:25.064Z,22.10
2018-01-12T03:09:52.906Z,22.10
2018-01-12T03:12:20.466Z,22.10
2018-01-12T03:14:48.329Z,22.10
2018-01-12T03:17:15.905Z,22.10
2018-01-12T03:19:43.672Z,22.10
2018-01-12T03:22:11.243Z,22.10
2018-01-12T03:24:38.800Z,22.10
2018-01-12T03:27:06.388Z,22.10
2018-01-12T03:29:33.970Z,22.10
2018-01-12T03:32:02.314Z,22.10
2018-01-12T03:34:29.884Z,22.10
2018-01-12T03:36:58.197Z,22.10
2018-01-12T03:39:25.802Z,22.10
2018-01-12T03:41:55.079Z,22.10
2018-01-12T03:44:22.670Z,22.10
2018-01-12T03:46:50.268Z,22.10
2018-01-12T03:49:17.826Z,22.10
2018-01-12T03:51:46.178Z,22.10
2018-01-12T03:54:13.714Z,22.10
2018-01-12T03:56:41.318Z,22.10
2018-01-12T03:59:09.966Z,22.10
2018-01-12T04:01:37.766Z,22.10
2018-01-12T04:04:06.078Z,22.10
2018-01-12T04:06:33.680Z,22.10
2018-01-12T04:09:01.432Z,22.10
2018-01-12T04:11:30.052Z,22.10
2018-01-12T04:13:57.704Z,22.10
2018-01-12T04:16:26.098Z,22.10
2018-01-12T04:18:54.548Z,22.10
2018-01-12T04:21:22.164Z,22.10
2018-01-12T04:23:49.934Z,22.10
2018-01-12T04:26:17.693Z,22.10
2018-01-12T04:28:45.258Z,22.10
2018-01-12T04:31:12.838Z,22.10
2018-01-12T04:33:40.428Z,22.10
2018-01-12T04:36:07.984Z,22.10
2018-01-12T04:38:36.304Z,22.10
2018-01-12T04:41:03.897Z,22.10
2018-01-12T04:43:31.447Z,22.00
2018-01-12T04:45:59.041Z,22.10
2018-01-12T04:48:26.627Z,22.00
2018-01-12T04:50:54.240Z,22.10
2018-01-12T04:53:21.807Z,22.10
2018-01-12T04:55:49.359Z,22.00
2018-01-12T04:58:16.977Z,22.00
2018-01-12T05:00:45.331Z,22.00
2018-01-12T05:03:13.707Z,22.00
2018-01-12T05:05:42.040Z,22.00
2018-01-12T05:08:09.611Z,22.00
2018-01-12T05:10:37.237Z,22.10
2018-01-12T05:13:04.797Z,22.00
2018-01-12T05:15:32.432Z,22.00
2018-01-12T05:18:00.767Z,22.00
2018-01-12T05:20:28.422Z,22.00
2018-01-12T05:22:55.987Z,22.00
2018-01-12T05:25:23.735Z,22.00
2018-01-12T05:27:51.323Z,22.00
2018-01-12T05:30:19.049Z,22.00
2018-01-12T05:32:46.663Z,22.10
2018-01-12T05:35:14.190Z,22.10
2018-01-12T05:37:41.779Z,22.10
2018-01-12T05:40:09.370Z,22.10
2018-01-12T05:42:36.975Z,22.10
2018-01-12T05:45:04.585Z,22.10
2018-01-12T05:47:32.969Z,22.10
2018-01-12T05:50:00.521Z,22.10
2018-01-12T05:52:28.101Z,22.00
2018-01-12T05:54:55.682Z,22.00
2018-01-12T05:57:23.237Z,22.00
2018-01-12T05:59:50.819Z,22.00
2018-01-12T06:02:30.115Z,22.00
2018-01-12T06:05:09.725Z,22.00
2018-01-12T06:07:38.071Z,22.00
2018-01-12T06:10:05.814Z,22.00
2018-01-12T06:12:33.435Z,22.00
2018-01-12T06:15:01.819Z,22.00
2018-01-12T06:17:30.177Z,22.00
2018-01-12T06:19:57.769Z,22.00
2018-01-12T06:22:25.457Z,22.00
2018-01-12T06:24:53.073Z,22.00
2018-01-12T06:27:22.275Z,22.00
2018-01-12T06:29:51.315Z,22.00
2018-01-12T06:32:19.055Z,22.00
2018-01-12T06:34:46.615Z,22.00
2018-01-12T06:37:14.231Z,22.00
2018-01-12T06:39:41.805Z,22.00
2018-01-12T06:42:10.338Z,22.00
2018-01-12T06:44:37.930Z,22.00
2018-01-12T06:47:07.104Z,22.00
2018-01-12T06:49:34.725Z,22.00
2018-01-12T06:52:02.290Z,22.00
2018-01-12T06:54:29.853Z,22.00
2018-01-12T06:56:57.453Z,22.00
2018-01-12T06:59:25.295Z,22.00
2018-01-12T07:01:52.851Z,22.10
2018-01-12T07:04:20.434Z,22.10
2018-01-12T07:06:48.265Z,22.10
2018-01-12T07:09:16.375Z,22.10
2018-01-12T07:11:43.939Z,22.10
2018-01-12T07:14:11.660Z,22.20
2018-01-12T07:16:39.324Z,22.20
2018-01-12T07:19:06.990Z,22.20
2018-01-12T07:21:46.313Z,22.20
2018-01-12T07:24:13.988Z,22.20
2018-01-12T07:26:41.607Z,22.20
2018-01-12T07:29:09.217Z,22.20
2018-01-12T07:31:41.238Z,22.20
2018-01-12T07:34:08.775Z,22.20
2018-01-12T07:36:36.328Z,22.10
2018-01-12T07:39:03.949Z,22.10
2018-01-12T07:41:31.505Z,22.10
2018-01-12T07:43:59.130Z,22.10
2018-01-12T07:46:27.446Z,22.10
2018-01-12T07:48:55.135Z,22.10
2018-01-12T07:51:22.977Z,22.10
2018-01-12T07:53:51.125Z,22.10
2018-01-12T07:56:19.491Z,22.10
2018-01-12T07:58:47.053Z,22.00
2018-01-12T08:01:20.995Z,22.00
2018-01-12T08:03:48.541Z,22.00
2018-01-12T08:06:16.309Z,22.00
2018-01-12T08:08:43.936Z,22.00
2018-01-12T08:11:11.507Z,22.00
2018-01-12T08:13:39.863Z,22.00
2018-01-12T08:16:07.489Z,22.00
2018-01-12T08:18:35.070Z,22.00
2018-01-12T08:21:02.882Z,22.10
2018-01-12T08:23:31.325Z,22.10
2018-01-12T08:25:58.961Z,22.10
2018-01-12T08:28:26.532Z,22.10
2018-01-12T08:30:54.105Z,22.10
2018-01-12T08:33:21.811Z,22.20
2018-01-12T08:35:49.393Z,22.10
2018-01-12T08:38:16.993Z,22.10
2018-01-12T08:40:44.613Z,22.10
2018-01-12T08:43:12.201Z,22.10
2018-01-12T08:45:39.735Z,22.10
2018-01-12T08:48:07.333Z,22.10
2018-01-12T08:50:34.924Z,22.10
2018-01-12T08:53:02.493Z,22.10
2018-01-12T08:55:30.074Z,22.10
2018-01-12T08:57:57.691Z,22.10
2018-01-12T09:00:26.021Z,22.00
2018-01-12T09:02:53.606Z,22.10
2018-01-12T09:05:21.187Z,22.00
2018-01-12T09:07:50.392Z,22.00
2018-01-12T09:10:18.750Z,22.10
2018-01-12T09:12:46.322Z,22.00
2018-01-12T09:15:22.909Z,22.00
2018-01-12T09:17:51.219Z,22.10
2018-01-12T09:20:19.140Z,22.00
2018-01-12T09:22:48.225Z,22.10
2018-01-12T09:25:22.714Z,22.00
2018-01-12T09:27:50.384Z,22.00
2018-01-12T09:30:18.006Z,22.00
2018-01-12T09:32:45.681Z,22.00
2018-01-12T09:35:13.254Z,22.10
2018-01-12T09:37:40.845Z,22.00
2018-01-12T09:40:31.111Z,22.00
2018-01-12T09:42:58.866Z,22.00
2018-01-12T09:45:26.419Z,22.00
2018-01-12T09:48:18.880Z,22.00
2018-01-12T09:50:46.515Z,22.00
2018-01-12T09:53:14.108Z,22.00
2018-01-12T09:55:41.662Z,22.00
2018-01-12T09:58:09.295Z,22.00
2018-01-12T10:00:42.714Z,22.00
2018-01-12T10:03:10.279Z,22.00
2018-01-12T10:05:37.881Z,22.00
2018-01-12T10:08:06.408Z,22.00
2018-01-12T10:10:34.008Z,22.00
2018-01-12T10:13:01.593Z,22.00
2018-01-12T10:15:29.277Z,22.00
2018-01-12T10:17:56.884Z,22.00
2018-01-12T10:20:39.345Z,22.00
2018-01-12T10:23:07.077Z,22.00
2018-01-12T10:25:34.660Z,22.00
2018-01-12T10:28:02.220Z,22.00
2018-01-12T10:31:02.508Z,22.00
2018-01-12T10:33:32.006Z,22.00
2018-01-12T10:35:59.626Z,22.00
2018-01-12T10:38:27.235Z,22.00
2018-01-12T10:41:09.700Z,22.00
2018-01-12T10:43:37.303Z,22.00
2018-01-12T10:46:08.844Z,22.00
2018-01-12T10:48:46.354Z,22.00
2018-01-12T10:51:16.882Z,22.00
2018-01-12T10:53:44.478Z,22.00
2018-01-12T10:56:12.094Z,22.00
2018-01-12T10:58:41.348Z,22.00
2018-01-12T11:01:09.706Z,22.00
2018-01-12T11:03:37.282Z,22.00
2018-01-12T11:06:04.911Z,22.00
2018-01-12T11:08:32.479Z,22.00
2018-01-12T11:11:00.826Z,22.00
2018-01-12T11:13:28.980Z,22.00
2018-01-12T11:15:56.560Z,22.00
2018-01-12T11:18:24.132Z,21.90
2018-01-12T11:20:51.770Z,22.00
2018-01-12T11:23:19.452Z,21.90
2018-01-12T11:25:46.990Z,21.90
2018-01-12T11:28:14.574Z,22.00
2018-01-12T11:30:42.237Z,21.90
2018-01-12T11:33:09.790Z,22.00
2018-01-12T11:35:38.848Z,22.00
2018-01-12T11:38:06.614Z,21.90
2018-01-12T11:40:34.324Z,21.90
2018-01-12T11:43:02.696Z,22.00
2018-01-12T11:45:30.298Z,21.90
2018-01-12T11:47:57.870Z,21.90
2018-01-12T11:50:25.500Z,21.90
2018-01-12T11:52:53.076Z,22.00
2018-01-12T11:55:20.670Z,21.90
2018-01-12T11:57:48.252Z,21.90
2018-01-12T12:00:15.918Z,21.90
2018-01-12T12:02:43.590Z,22.00
2018-01-12T12:05:11.932Z,22.00
2018-01-12T12:07:39.649Z,22.00
2018-01-12T12:10:07.276Z,22.00
2018-01-12T12:12:34.924Z,22.00
2018-01-12T12:15:02.524Z,22.00
2018-01-12T12:17:30.147Z,22.00
2018-01-12T12:19:57.695Z,22.00
2018-01-12T12:22:25.324Z,22.00
2018-01-12T12:24:52.946Z,22.00
2018-01-12T12:27:20.786Z,22.00
2018-01-12T12:29:48.356Z,22.00
2018-01-12T12:32:15.988Z,22.00
2018-01-12T12:34:43.578Z,22.00
2018-01-12T12:37:11.166Z,21.90
2018-01-12T12:39:39.510Z,22.00
2018-01-12T12:42:07.140Z,22.00
2018-01-12T12:44:34.728Z,22.00
2018-01-12T12:47:02.288Z,22.00
2018-01-12T12:49:29.836Z,22.00
2018-01-12T12:51:57.516Z,22.00
2018-01-12T12:54:25.126Z,22.00
2018-01-12T12:56:52.802Z,22.00
2018-01-12T12:59:20.380Z,22.00
2018-01-12T13:01:48.118Z,22.00
2018-01-12T13:04:15.768Z,22.00
2018-01-12T13:06:43.360Z,22.00
2018-01-12T13:09:10.940Z,22.00
2018-01-12T13:11:38.639Z,22.00
2018-01-12T13:14:07.086Z,22.00
2018-01-12T13:16:34.701Z,22.00
2018-01-12T13:19:02.262Z,21.90
2018-01-12T13:21:29.882Z,22.00
2018-01-12T13:23:57.720Z,22.00
2018-01-12T13:26:25.306Z,21.90
2018-01-12T13:28:52.928Z,22.00
2018-01-12T13:31:20.526Z,22.00
2018-01-12T13:33:48.159Z,22.00
2018-01-12T13:36:15.863Z,22.00
2018-01-12T13:38:44.219Z,21.90
2018-01-12T13:41:11.832Z,22.00
2018-01-12T13:43:39.531Z,21.90
2018-01-12T13:46:07.900Z,22.00
2018-01-12T13:48:35.453Z,22.00
2018-01-12T13:51:03.055Z,22.00
2018-01-12T13:53:31.770Z,22.00
2018-01-12T13:56:00.179Z,22.00
2018-01-12T13:58:27.811Z,22.00
2018-01-12T14:00:55.417Z,22.00
2018-01-12T14:03:23.012Z,22.00
2018-01-12T14:05:50.693Z,22.00
2018-01-12T14:08:18.295Z,22.00
2018-01-12T14:10:45.936Z,22.00
2018-01-12T14:13:14.317Z,22.00
2018-01-12T14:15:42.606Z,22.00
2018-01-12T14:18:10.217Z,22.00
2018-01-12T14:20:37.873Z,22.00
2018-01-12T14:23:06.241Z,22.00
2018-01-12T14:25:34.033Z,22.00
2018-01-12T14:28:01.653Z,22.00
2018-01-12T14:30:29.255Z,22.00
2018-01-12T14:32:56.864Z,22.00
2018-01-12T14:35:24.454Z,22.00
2018-01-12T14:37:52.841Z,22.00
2018-01-12T14:40:21.167Z,22.00
2018-01-12T14:42:48.959Z,22.00
2018-01-12T14:45:16.529Z,22.00
2018-01-12T14:47:44.177Z,22.00
2018-01-12T14:50:11.971Z,21.90
2018-01-12T14:52:40.345Z,22.00
2018-01-12T14:55:08.870Z,22.00
2018-01-12T14:57:36.491Z,21.90
2018-01-12T15:00:05.100Z,21.90
2018-01-12T15:02:32.813Z,22.00
2018-01-12T15:05:00.436Z,22.00
2018-01-12T15:07:28.039Z,21.90
2018-01-12T15:09:57.113Z,21.90
2018-01-12T15:12:24.930Z,21.90
2018-01-12T15:14:52.511Z,21.90
2018-01-12T15:17:20.330Z,21.90
2018-01-12T15:19:47.893Z,21.90
2018-01-12T15:22:16.230Z,21.90
2018-01-12T15:24:43.817Z,21.90
2018-01-12T15:27:11.419Z,21.90
2018-01-12T15:29:39.014Z,21.90
2018-01-12T15:32:06.587Z,21.90
2018-01-12T15:34:34.144Z,21.90
2018-01-12T15:37:01.747Z,21.90
2018-01-12T15:39:29.367Z,21.90
2018-01-12T15:41:56.951Z,21.90
2018-01-12T15:44:24.547Z,21.90
2018-01-12T15:46:52.173Z,21.90
2018-01-12T15:49:20.527Z,21.90
2018-01-12T15:51:48.064Z,21.90
2018-01-12T15:54:15.672Z,22.00
2018-01-12T15:56:44.040Z,22.00
2018-01-12T15:59:11.626Z,22.00
2018-01-12T16:01:39.987Z,22.00
2018-01-12T16:04:07.556Z,22.00
2018-01-12T16:06:35.876Z,22.00
2018-01-12T16:09:03.462Z,22.00
2018-01-12T16:11:31.025Z,22.00
2018-01-12T16:13:58.682Z,22.00
2018-01-12T16:16:26.200Z,22.00
2018-01-12T16:18:53.967Z,22.10
2018-01-12T16:21:21.560Z,22.10
2018-01-12T16:23:49.114Z,22.10
2018-01-12T16:26:16.750Z,22.20
2018-01-12T16:28:44.318Z,22.20
2018-01-12T16:31:12.068Z,22.30
2018-01-12T16:33:40.486Z,22.30
2018-01-12T16:36:08.174Z,22.30
2018-01-12T16:38:36.533Z,22.30
2018-01-12T16:41:04.153Z,22.30
2018-01-12T16:43:31.794Z,22.40
2018-01-12T16:45:59.478Z,22.40
2018-01-12T16:48:27.058Z,22.40
2018-01-12T16:50:54.658Z,22.50
2018-01-12T16:53:23.019Z,22.60
2018-01-12T16:55:50.578Z,22.60
2018-01-12T16:58:18.180Z,22.70
2018-01-12T17:00:46.488Z,22.70
2018-01-12T17:03:14.118Z,22.80
2018-01-12T17:05:41.698Z,22.70
2018-01-12T17:08:09.298Z,22.70
2018-01-12T17:10:37.632Z,22.60
2018-01-12T17:13:05.234Z,22.60
2018-01-12T17:15:32.819Z,22.50
2018-01-12T17:18:01.198Z,22.50
2018-01-12T17:20:29.518Z,22.40
2018-01-12T17:22:57.079Z,22.40
2018-01-12T17:25:24.722Z,22.40
2018-01-12T17:27:53.122Z,22.40
2018-01-12T17:30:20.760Z,22.40
2018-01-12T17:32:48.438Z,22.40
2018-01-12T17:35:16.024Z,22.40
2018-01-12T17:37:43.592Z,22.40
2018-01-12T17:40:11.200Z,22.40
2018-01-12T17:42:38.788Z,22.40
2018-01-12T17:45:06.529Z,22.40
2018-01-12T17:47:34.168Z,22.40
2018-01-12T17:50:02.514Z,22.30
2018-01-12T17:52:30.086Z,22.30
2018-01-12T17:54:57.700Z,22.20
2018-01-12T17:57:25.256Z,22.20
2018-01-12T17:59:53.054Z,22.20
2018-01-12T18:02:20.879Z,22.10
2018-01-12T18:04:48.426Z,22.10
2018-01-12T18:07:16.071Z,22.10
2018-01-12T18:09:44.434Z,22.00
2018-01-12T18:12:11.994Z,22.00
2018-01-12T18:14:39.565Z,22.00
2018-01-12T18:17:07.946Z,21.90
2018-01-12T18:19:36.334Z,21.80
2018-01-12T18:22:04.012Z,21.80
2018-01-12T18:24:31.922Z,21.80
2018-01-12T18:26:59.490Z,21.80
2018-01-12T18:29:27.155Z,21.70
2018-01-12T18:31:54.734Z,21.70
2018-01-12T18:34:23.058Z,21.60
2018-01-12T18:36:50.734Z,21.60
2018-01-12T18:39:18.358Z,21.60
2018-01-12T18:41:46.997Z,21.60
2018-01-12T18:44:14.567Z,21.50
2018-01-12T18:46:42.176Z,21.50
2018-01-12T18:49:10.660Z,21.60
2018-01-12T18:51:38.220Z,21.60
2018-01-12T18:54:06.374Z,21.60
2018-01-12T18:56:33.996Z,21.70
2018-01-12T18:59:01.696Z,21.70
2018-01-12T19:01:29.368Z,21.70
2018-01-12T19:03:56.953Z,21.80
2018-01-12T19:06:24.522Z,21.90
2018-01-12T19:08:52.137Z,21.90
2018-01-12T19:11:19.772Z,21.90
2018-01-12T19:13:47.372Z,21.90
2018-01-12T19:16:14.961Z,21.90
2018-01-12T19:18:42.641Z,21.90
2018-01-12T19:21:10.224Z,22.00
2018-01-12T19:23:38.616Z,22.00
2018-01-12T19:26:06.926Z,22.00
2018-01-12T19:28:34.748Z,22.00
2018-01-12T19:31:03.124Z,22.00
2018-01-12T19:33:31.460Z,22.00
2018-01-12T19:35:59.854Z,22.30
2018-01-12T19:38:27.450Z,22.00
2018-01-12T19:40:55.822Z,22.00
2018-01-12T19:43:25.110Z,22.10
2018-01-12T19:45:52.680Z,22.00
2018-01-12T19:48:21.024Z,22.10
2018-01-12T19:50:48.890Z,22.10
2018-01-12T19:53:16.462Z,22.10
2018-01-12T19:55:44.848Z,22.10
2018-01-12T19:58:12.552Z,22.10
2018-01-12T20:00:40.192Z,22.10
2018-01-12T20:03:08.542Z,22.10
2018-01-12T20:05:36.190Z,22.10
2018-01-12T20:08:03.794Z,22.10
2018-01-12T20:10:32.136Z,22.10
2018-01-12T20:12:59.798Z,22.10
2018-01-12T20:15:27.519Z,22.10
2018-01-12T20:17:55.118Z,22.10
2018-01-12T20:20:22.920Z,22.10
2018-01-12T20:22:51.352Z,22.10
2018-01-12T20:25:19.296Z,22.10
2018-01-12T20:27:46.976Z,22.10
2018-01-12T20:30:14.624Z,22.10
2018-01-12T20:32:42.922Z,22.10
2018-01-12T20:35:10.568Z,22.10
2018-01-12T20:37:39.114Z,22.10
2018-01-12T20:40:06.885Z,22.10
2018-01-12T20:42:34.876Z,22.10
2018-01-12T20:45:02.550Z,22.10
2018-01-12T20:47:30.152Z,22.10
2018-01-12T20:49:57.744Z,22.10
2018-01-12T20:52:25.363Z,22.10
2018-01-12T20:54:53.866Z,22.10
2018-01-12T20:57:22.290Z,22.20
2018-01-12T20:59:50.099Z,22.20
2018-01-12T21:02:18.518Z,22.10
2018-01-12T21:04:46.117Z,22.10
2018-01-12T21:07:14.879Z,22.10
2018-01-12T21:09:43.539Z,22.20
2018-01-12T21:12:11.269Z,22.10
2018-01-12T21:14:38.903Z,22.10
2018-01-12T21:17:06.587Z,22.10
2018-01-12T21:19:35.091Z,22.10
2018-01-12T21:22:03.722Z,22.10
2018-01-12T21:24:31.387Z,22.10
2018-01-12T21:26:59.476Z,22.10
2018-01-12T21:29:27.086Z,22.10
2018-01-12T21:31:54.713Z,22.10
2018-01-12T21:34:23.028Z,22.10
2018-01-12T21:36:50.657Z,22.10
2018-01-12T21:39:19.163Z,22.10
2018-01-12T21:41:47.511Z,22.10
2018-01-12T21:44:15.133Z,22.10
2018-01-12T21:46:43.817Z,22.10
2018-01-12T21:49:11.395Z,22.10
2018-01-12T21:51:39.091Z,22.10
2018-01-12T21:54:06.667Z,22.10
2018-01-12T21:56:35.081Z,22.10
2018-01-12T21:59:02.727Z,22.10
2018-01-12T22:01:31.239Z,22.20
2018-01-12T22:03:58.883Z,22.20
2018-01-12T22:06:26.481Z,22.20
2018-01-12T22:08:54.075Z,22.20
2018-01-12T22:11:22.451Z,22.20
2018-01-12T22:13:50.787Z,22.20
2018-01-12T22:16:18.351Z,22.20
2018-01-12T22:18:46.033Z,22.30
2018-01-12T22:21:13.627Z,22.30
2018-01-12T22:23:41.223Z,22.30
2018-01-12T22:26:08.778Z,22.30
2018-01-12T22:28:36.365Z,22.30
2018-01-12T22:31:04.581Z,22.30
2018-01-12T22:33:32.167Z,22.40
2018-01-12T22:35:59.784Z,22.30
2018-01-12T22:38:28.166Z,22.40
2018-01-12T22:40:56.159Z,22.30
2018-01-12T22:43:23.756Z,22.30
2018-01-12T22:45:51.352Z,22.40
2018-01-12T22:48:19.776Z,22.40
2018-01-12T22:50:47.812Z,22.30
2018-01-12T22:53:15.600Z,22.40
2018-01-12T22:55:43.194Z,22.40
2018-01-12T22:58:10.765Z,22.40
2018-01-12T23:00:38.356Z,22.40
2018-01-12T23:03:06.088Z,22.40
2018-01-12T23:05:33.763Z,22.40
2018-01-12T23:08:02.116Z,22.40
2018-01-12T23:10:29.763Z,22.40
2018-01-12T23:12:57.352Z,22.40
2018-01-12T23:15:24.941Z,22.40
2018-01-12T23:17:52.533Z,22.40
2018-01-12T23:20:20.136Z,22.40
2018-01-12T23:22:47.804Z,22.40
2018-01-12T23:25:16.045Z,22.40
2018-01-12T23:27:43.654Z,22.40
2018-01-12T23:30:11.979Z,22.40
2018-01-12T23:32:39.710Z,22.40
2018-01-12T23:35:07.312Z,22.40
2018-01-12T23:37:34.880Z,22.40
2018-01-12T23:40:02.616Z,22.30
2018-01-12T23:42:30.300Z,22.40
2018-01-12T23:44:57.874Z,22.30
2018-01-12T23:47:25.474Z,22.30
2018-01-12T23:49:53.024Z,22.30
2018-01-12T23:52:21.014Z,22.30
2018-01-12T23:54:48.578Z,22.30
2018-01-12T23:57:16.252Z,22.30
2018-01-12T23:59:45.324Z,22.30
